createdAt,value
2019-01-17T00:00:23.229Z,9.47
2019-01-17T00:02:28.579Z,9.00
2019-01-17T00:04:45.783Z,9.40
2019-01-17T00:06:53.982Z,8.53
2019-01-17T00:08:59.233Z,9.67
2019-01-17T00:11:10.653Z,9.57
2019-01-17T00:13:15.865Z,8.93
2019-01-17T00:15:21.257Z,8.73
2019-01-17T00:17:42.245Z,8.97
2019-01-17T00:20:05.501Z,10.17
2019-01-17T00:22:10.767Z,7.67
2019-01-17T00:24:24.942Z,9.77
2019-01-17T00:26:30.244Z,8.43
2019-01-17T00:28:53.592Z,9.10
2019-01-17T00:31:04.389Z,8.80
2019-01-17T00:33:09.788Z,9.87
2019-01-17T00:35:15.154Z,9.80
2019-01-17T00:37:22.879Z,8.70
2019-01-17T00:39:39.947Z,9.90
2019-01-17T00:41:48.275Z,10.90
2019-01-17T00:44:02.668Z,10.23
2019-01-17T00:46:23.009Z,9.43
2019-01-17T00:48:37.131Z,9.90
2019-01-17T00:50:45.661Z,9.87
2019-01-17T00:52:56.746Z,8.87
2019-01-17T00:55:04.795Z,9.90
2019-01-17T00:57:25.211Z,9.00
2019-01-17T00:59:33.351Z,8.80
2019-01-17T01:01:41.210Z,7.07
2019-01-17T01:04:01.110Z,8.40
2019-01-17T01:06:06.519Z,8.57
2019-01-17T01:08:26.678Z,7.80
2019-01-17T01:10:32.101Z,7.90
2019-01-17T01:12:42.880Z,8.80
2019-01-17T01:14:57.381Z,8.60
2019-01-17T01:17:11.109Z,9.20
2019-01-17T01:19:16.475Z,8.60
2019-01-17T01:21:27.984Z,9.07
2019-01-17T01:23:33.266Z,7.97
2019-01-17T01:25:50.519Z,8.63
2019-01-17T01:28:10.937Z,7.27
2019-01-17T01:30:17.347Z,8.17
2019-01-17T01:32:31.421Z,8.17
2019-01-17T01:34:42.780Z,8.37
2019-01-17T01:36:53.892Z,8.33
2019-01-17T01:39:08.191Z,9.10
2019-01-17T01:41:22.068Z,7.77
2019-01-17T01:43:30.277Z,7.50
2019-01-17T01:45:38.428Z,8.07
2019-01-17T01:47:43.729Z,6.70
2019-01-17T01:49:51.765Z,8.43
2019-01-17T01:52:00.156Z,7.47
2019-01-17T01:54:03.879Z,7.93
2019-01-17T01:56:07.636Z,8.80
2019-01-17T01:58:12.171Z,8.00
2019-01-17T02:00:15.894Z,7.90
2019-01-17T02:02:19.564Z,7.63
2019-01-17T02:04:23.387Z,8.30
2019-01-17T02:06:27.097Z,7.30
2019-01-17T02:08:30.829Z,8.83
2019-01-17T02:10:34.626Z,8.00
2019-01-17T02:12:38.368Z,7.47
2019-01-17T02:14:42.067Z,7.73
2019-01-17T02:16:45.779Z,7.80
2019-01-17T02:18:49.501Z,7.17
2019-01-17T02:20:53.177Z,6.90
2019-01-17T02:22:56.979Z,6.80
2019-01-17T02:25:00.546Z,6.57
2019-01-17T02:27:04.295Z,6.97
2019-01-17T02:29:08.065Z,7.03
2019-01-17T02:31:11.811Z,6.97
2019-01-17T02:33:15.390Z,7.17
2019-01-17T02:35:19.101Z,5.63
2019-01-17T02:37:22.819Z,6.03
2019-01-17T02:39:26.604Z,6.77
2019-01-17T02:41:30.343Z,5.47
2019-01-17T02:43:34.015Z,6.10
2019-01-17T02:45:37.675Z,5.60
2019-01-17T02:47:41.522Z,5.57
2019-01-17T02:49:45.166Z,7.70
2019-01-17T02:51:48.772Z,5.90
2019-01-17T02:53:52.440Z,5.87
2019-01-17T02:55:56.095Z,4.37
2019-01-17T02:57:59.805Z,5.90
2019-01-17T03:00:05.322Z,6.40
2019-01-17T03:02:09.124Z,6.37
2019-01-17T03:04:12.723Z,7.63
2019-01-17T03:06:16.532Z,6.67
2019-01-17T03:08:20.316Z,6.10
2019-01-17T03:10:24.100Z,6.30
2019-01-17T03:12:27.886Z,6.87
2019-01-17T03:14:31.680Z,5.50
2019-01-17T03:16:35.384Z,6.37
2019-01-17T03:18:39.210Z,6.70
2019-01-17T03:20:42.844Z,6.37
2019-01-17T03:22:46.568Z,7.23
2019-01-17T03:24:50.378Z,6.47
2019-01-17T03:26:54.027Z,6.10
2019-01-17T03:28:57.783Z,5.13
2019-01-17T03:31:01.557Z,6.50
2019-01-17T03:33:05.305Z,6.13
2019-01-17T03:35:09.261Z,6.60
2019-01-17T03:37:12.907Z,7.47
2019-01-17T03:39:16.586Z,7.50
2019-01-17T03:41:20.343Z,7.20
2019-01-17T03:43:24.085Z,6.77
2019-01-17T03:45:27.742Z,6.73
2019-01-17T03:47:31.497Z,6.80
2019-01-17T03:49:35.256Z,6.37
2019-01-17T03:51:38.979Z,6.20
2019-01-17T03:53:42.684Z,7.20
2019-01-17T03:55:46.605Z,7.90
2019-01-17T03:57:50.399Z,8.10
2019-01-17T03:59:54.144Z,10.57
2019-01-17T04:01:57.907Z,9.67
2019-01-17T04:04:01.554Z,6.53
2019-01-17T04:06:05.335Z,7.47
2019-01-17T04:08:09.043Z,7.17
2019-01-17T04:10:14.681Z,8.53
2019-01-17T04:12:18.329Z,7.13
2019-01-17T04:14:22.042Z,7.33
2019-01-17T04:16:25.748Z,6.20
2019-01-17T04:18:29.417Z,6.10
2019-01-17T04:20:33.177Z,7.13
2019-01-17T04:22:36.813Z,6.23
2019-01-17T04:24:41.294Z,6.40
2019-01-17T04:26:44.987Z,6.07
2019-01-17T04:28:48.765Z,6.93
2019-01-17T04:30:52.449Z,5.90
2019-01-17T04:32:56.092Z,6.10
2019-01-17T04:34:59.708Z,6.77
2019-01-17T04:37:03.387Z,6.87
2019-01-17T04:39:07.335Z,6.43
2019-01-17T04:41:11.012Z,6.33
2019-01-17T04:43:14.589Z,6.20
2019-01-17T04:45:18.318Z,6.60
2019-01-17T04:47:22.082Z,7.20
2019-01-17T04:49:25.764Z,7.20
2019-01-17T04:51:29.609Z,6.33
2019-01-17T04:53:33.307Z,6.20
2019-01-17T04:55:37.083Z,7.03
2019-01-17T04:57:40.839Z,7.27
2019-01-17T04:59:44.534Z,6.33
2019-01-17T05:01:48.272Z,7.90
2019-01-17T05:03:52.089Z,7.43
2019-01-17T05:05:55.886Z,6.90
2019-01-17T05:07:59.557Z,7.43
2019-01-17T05:10:04.819Z,5.77
2019-01-17T05:12:08.730Z,6.77
2019-01-17T05:14:12.386Z,7.00
2019-01-17T05:16:16.155Z,7.93
2019-01-17T05:18:19.928Z,7.47
2019-01-17T05:20:23.616Z,7.90
2019-01-17T05:22:27.433Z,8.20
2019-01-17T05:24:31.084Z,8.30
2019-01-17T05:26:34.814Z,7.60
2019-01-17T05:28:38.507Z,7.83
2019-01-17T05:30:42.907Z,7.43
2019-01-17T05:32:46.711Z,9.27
2019-01-17T05:34:50.553Z,6.70
2019-01-17T05:36:54.302Z,6.60
2019-01-17T05:38:58.038Z,8.70
2019-01-17T05:41:01.844Z,7.30
2019-01-17T05:43:05.581Z,8.40
2019-01-17T05:45:09.932Z,7.13
2019-01-17T05:47:14.291Z,5.80
2019-01-17T05:49:18.256Z,8.07
2019-01-17T05:51:22.421Z,6.70
2019-01-17T05:53:26.638Z,7.80
2019-01-17T05:55:30.384Z,7.93
2019-01-17T05:57:33.972Z,7.90
2019-01-17T05:59:37.724Z,9.00
2019-01-17T06:01:41.592Z,8.00
2019-01-17T06:03:45.262Z,9.17
2019-01-17T06:05:48.992Z,7.27
2019-01-17T06:07:52.705Z,8.90
2019-01-17T06:09:56.432Z,8.07
2019-01-17T06:12:00.185Z,7.43
2019-01-17T06:14:04.077Z,8.13
2019-01-17T06:16:08.025Z,8.33
2019-01-17T06:18:11.882Z,7.90
2019-01-17T06:20:17.131Z,7.37
2019-01-17T06:22:20.829Z,8.43
2019-01-17T06:24:24.730Z,8.10
2019-01-17T06:26:28.556Z,7.70
2019-01-17T06:28:32.496Z,7.63
2019-01-17T06:30:36.235Z,7.93
2019-01-17T06:32:39.976Z,7.17
2019-01-17T06:34:43.607Z,8.90
2019-01-17T06:36:47.194Z,8.40
2019-01-17T06:38:50.973Z,8.47
2019-01-17T06:40:54.693Z,9.47
2019-01-17T06:42:58.440Z,9.67
2019-01-17T06:45:02.171Z,8.83
2019-01-17T06:47:05.877Z,9.07
2019-01-17T06:49:09.665Z,8.73
2019-01-17T06:51:13.307Z,9.33
2019-01-17T06:53:17.012Z,10.07
2019-01-17T06:55:20.819Z,8.77
2019-01-17T06:57:24.485Z,10.40
2019-01-17T06:59:28.225Z,10.03
2019-01-17T07:01:31.914Z,8.67
2019-01-17T07:03:35.581Z,9.77
2019-01-17T07:05:39.265Z,9.20
2019-01-17T07:07:43.010Z,8.20
2019-01-17T07:09:46.721Z,9.23
2019-01-17T07:11:52.015Z,8.00
2019-01-17T07:13:55.588Z,9.50
2019-01-17T07:15:59.557Z,10.07
2019-01-17T07:18:03.169Z,8.53
2019-01-17T07:20:10.176Z,8.50
2019-01-17T07:22:13.896Z,9.07
2019-01-17T07:24:17.668Z,9.10
2019-01-17T07:26:21.340Z,8.63
2019-01-17T07:28:24.994Z,8.47
2019-01-17T07:30:28.773Z,9.33
2019-01-17T07:32:32.773Z,8.00
2019-01-17T07:34:36.478Z,8.40
2019-01-17T07:36:40.245Z,7.90
2019-01-17T07:38:43.994Z,9.60
2019-01-17T07:40:50.095Z,9.60
2019-01-17T07:42:53.814Z,7.73
2019-01-17T07:44:57.466Z,8.37
2019-01-17T07:47:01.101Z,8.40
2019-01-17T07:49:04.801Z,8.37
2019-01-17T07:51:08.565Z,9.57
2019-01-17T07:53:12.267Z,8.67
2019-01-17T07:55:16.012Z,8.60
2019-01-17T07:57:19.808Z,7.90
2019-01-17T07:59:23.505Z,8.47
2019-01-17T08:01:27.314Z,7.33
2019-01-17T08:03:30.966Z,7.47
2019-01-17T08:05:34.798Z,7.80
2019-01-17T08:07:38.543Z,7.33
2019-01-17T08:09:42.205Z,5.70
2019-01-17T08:11:45.799Z,6.00
2019-01-17T08:13:49.446Z,5.87
2019-01-17T08:15:53.190Z,5.50
2019-01-17T08:17:57.499Z,5.57
2019-01-17T08:20:01.199Z,5.40
2019-01-17T08:22:05.240Z,4.27
2019-01-17T08:24:08.845Z,4.50
2019-01-17T08:26:12.578Z,4.80
2019-01-17T08:28:16.330Z,5.37
2019-01-17T08:30:22.429Z,5.70
2019-01-17T08:32:26.185Z,6.03
2019-01-17T08:34:29.919Z,6.40
2019-01-17T08:36:33.658Z,6.10
2019-01-17T08:38:37.505Z,6.40
2019-01-17T08:40:41.213Z,7.27
2019-01-17T08:42:45.070Z,6.87
2019-01-17T08:44:48.611Z,7.70
2019-01-17T08:46:52.294Z,6.57
2019-01-17T08:48:56.087Z,6.10
2019-01-17T08:50:59.802Z,6.30
2019-01-17T08:53:03.631Z,5.57
2019-01-17T08:55:07.865Z,6.20
2019-01-17T08:57:11.538Z,5.43
2019-01-17T08:59:15.227Z,4.70
2019-01-17T09:01:19.039Z,4.70
2019-01-17T09:03:22.692Z,3.97
2019-01-17T09:05:26.416Z,4.33
2019-01-17T09:07:30.016Z,3.97
2019-01-17T09:09:34.811Z,3.43
2019-01-17T09:11:38.511Z,4.77
2019-01-17T09:13:42.119Z,4.83
2019-01-17T09:15:45.846Z,5.17
2019-01-17T09:17:49.761Z,4.23
2019-01-17T09:19:53.565Z,5.07
2019-01-17T09:21:57.368Z,4.53
2019-01-17T09:24:01.138Z,4.20
2019-01-17T09:26:07.567Z,4.20
2019-01-17T09:28:10.283Z,6.40
2019-01-17T09:30:16.385Z,4.33
2019-01-17T09:32:20.104Z,4.10
2019-01-17T09:34:23.849Z,4.57
2019-01-17T09:36:27.858Z,4.17
2019-01-17T09:38:31.639Z,4.33
2019-01-17T09:40:35.361Z,3.80
2019-01-17T09:42:39.806Z,4.07
2019-01-17T09:44:43.408Z,3.97
2019-01-17T09:46:47.300Z,4.00
2019-01-17T09:48:51.098Z,3.00
2019-01-17T09:50:54.747Z,3.37
2019-01-17T09:52:58.509Z,2.67
2019-01-17T09:55:02.346Z,3.10
2019-01-17T09:57:06.059Z,2.87
2019-01-17T09:59:09.886Z,3.20
2019-01-17T10:01:13.679Z,3.20
2019-01-17T10:03:17.555Z,2.20
2019-01-17T10:05:21.273Z,2.23
2019-01-17T10:07:25.102Z,1.90
2019-01-17T10:09:28.821Z,1.83
2019-01-17T10:11:32.538Z,1.90
2019-01-17T10:13:36.184Z,1.40
2019-01-17T10:15:45.549Z,1.40
2019-01-17T10:18:25.236Z,1.60
2019-01-17T10:21:04.641Z,1.93
2019-01-17T10:23:23.448Z,1.77
2019-01-17T10:25:38.820Z,1.60
2019-01-17T10:27:57.087Z,1.60
2019-01-17T10:30:09.505Z,1.90
2019-01-17T10:32:16.155Z,2.30
2019-01-17T10:34:25.814Z,1.80
2019-01-17T10:36:37.901Z,1.73
2019-01-17T10:38:47.168Z,1.77
2019-01-17T10:41:02.526Z,2.10
2019-01-17T10:43:24.105Z,2.07
2019-01-17T10:45:42.648Z,1.77
2019-01-17T10:48:22.262Z,2.47
2019-01-17T10:50:28.979Z,1.70
2019-01-17T10:52:44.273Z,2.50
2019-01-17T10:55:02.574Z,2.90
2019-01-17T10:57:27.242Z,2.63
2019-01-17T10:59:51.829Z,2.80
2019-01-17T11:01:58.581Z,2.97
2019-01-17T11:04:16.956Z,1.67
2019-01-17T11:06:26.355Z,1.67
2019-01-17T11:08:39.039Z,1.90
2019-01-17T11:10:52.091Z,1.73
2019-01-17T11:13:19.505Z,3.00
2019-01-17T11:15:32.014Z,1.83
2019-01-17T11:17:41.372Z,3.57
2019-01-17T11:19:48.139Z,2.03
2019-01-17T11:22:09.709Z,1.97
2019-01-17T11:24:25.208Z,2.10
2019-01-17T11:26:34.870Z,3.23
2019-01-17T11:28:53.683Z,1.90
2019-01-17T11:31:18.207Z,2.00
2019-01-17T11:34:01.055Z,2.23
2019-01-17T11:36:23.949Z,2.30
2019-01-17T11:38:35.962Z,2.20
2019-01-17T11:40:48.350Z,1.97
2019-01-17T11:43:12.809Z,1.70
2019-01-17T11:45:22.151Z,1.80
2019-01-17T11:47:31.394Z,1.60
2019-01-17T11:49:49.795Z,1.70
2019-01-17T11:51:56.494Z,1.90
2019-01-17T11:54:06.121Z,2.60
2019-01-17T11:56:29.305Z,1.30
2019-01-17T11:59:01.430Z,2.60
2019-01-17T12:01:30.545Z,1.90
2019-01-17T12:03:39.988Z,1.63
2019-01-17T12:05:43.881Z,2.00
2019-01-17T12:07:47.568Z,1.73
2019-01-17T12:09:51.401Z,1.70
2019-01-17T12:11:55.193Z,2.20
2019-01-17T12:13:58.781Z,2.00
2019-01-17T12:16:02.517Z,1.83
2019-01-17T12:18:06.319Z,2.07
2019-01-17T12:20:10.047Z,1.80
2019-01-17T12:22:13.856Z,1.47
2019-01-17T12:24:17.633Z,1.83
2019-01-17T12:26:21.297Z,1.70
2019-01-17T12:28:25.037Z,1.87
2019-01-17T12:30:28.716Z,1.80
2019-01-17T12:32:32.425Z,1.90
2019-01-17T12:34:36.187Z,1.80
2019-01-17T12:36:39.907Z,2.07
2019-01-17T12:38:43.599Z,2.27
2019-01-17T12:40:47.829Z,2.20
2019-01-17T12:42:51.571Z,1.63
2019-01-17T12:44:55.304Z,1.47
2019-01-17T12:47:00.041Z,1.57
2019-01-17T12:49:03.784Z,2.20
2019-01-17T12:51:07.613Z,2.13
2019-01-17T12:53:11.394Z,2.90
2019-01-17T12:55:15.314Z,2.10
2019-01-17T12:57:19.739Z,1.50
2019-01-17T12:59:23.369Z,1.80
2019-01-17T13:01:27.073Z,1.70
2019-01-17T13:03:30.693Z,1.80
2019-01-17T13:05:34.271Z,1.50
2019-01-17T13:07:38.040Z,1.70
2019-01-17T13:09:41.797Z,1.60
2019-01-17T13:11:45.520Z,1.70
2019-01-17T13:13:49.401Z,1.40
2019-01-17T13:15:53.207Z,1.73
2019-01-17T13:17:56.928Z,1.70
2019-01-17T13:20:02.211Z,1.53
2019-01-17T13:22:08.333Z,1.60
2019-01-17T13:24:13.512Z,1.57
2019-01-17T13:26:17.350Z,1.60
2019-01-17T13:28:21.516Z,1.57
2019-01-17T13:30:25.180Z,1.80
2019-01-17T13:32:28.935Z,1.50
2019-01-17T13:34:33.757Z,1.63
2019-01-17T13:36:40.576Z,1.60
2019-01-17T13:38:42.814Z,1.77
2019-01-17T13:40:46.921Z,3.17
2019-01-17T13:42:50.638Z,3.40
2019-01-17T13:44:54.466Z,2.20
2019-01-17T13:46:58.258Z,2.00
2019-01-17T13:49:01.996Z,1.57
2019-01-17T13:51:05.792Z,2.03
2019-01-17T13:53:09.630Z,1.50
2019-01-17T13:55:15.832Z,1.70
2019-01-17T13:57:19.587Z,1.90
2019-01-17T13:59:23.332Z,1.90
2019-01-17T14:01:27.068Z,1.60
2019-01-17T14:03:30.828Z,1.70
2019-01-17T14:05:34.691Z,1.77
2019-01-17T14:07:38.411Z,1.70
2019-01-17T14:09:42.002Z,1.30
2019-01-17T14:11:45.754Z,1.73
2019-01-17T14:13:49.496Z,2.20
2019-01-17T14:15:53.254Z,2.30
2019-01-17T14:17:56.978Z,2.10
2019-01-17T14:20:00.770Z,1.73
2019-01-17T14:22:04.617Z,1.93
2019-01-17T14:24:08.896Z,2.00
2019-01-17T14:26:12.835Z,1.80
2019-01-17T14:28:19.016Z,1.80
2019-01-17T14:30:30.516Z,2.33
2019-01-17T14:32:39.965Z,1.83
2019-01-17T14:34:45.204Z,1.90
2019-01-17T14:36:49.792Z,1.90
2019-01-17T14:38:54.434Z,2.43
2019-01-17T14:40:59.365Z,2.00
2019-01-17T14:43:04.112Z,1.93
2019-01-17T14:45:14.786Z,1.80
2019-01-17T14:47:18.699Z,1.73
2019-01-17T14:49:22.503Z,1.93
2019-01-17T14:51:26.390Z,2.90
2019-01-17T14:53:30.082Z,2.53
2019-01-17T14:55:34.011Z,4.33
2019-01-17T14:57:38.104Z,3.37
2019-01-17T14:59:43.405Z,2.40
2019-01-17T15:01:47.833Z,2.40
2019-01-17T15:03:51.948Z,2.67
2019-01-17T15:05:55.815Z,2.53
2019-01-17T15:08:01.063Z,2.17
2019-01-17T15:10:11.871Z,2.50
2019-01-17T15:12:16.058Z,1.70
2019-01-17T15:14:20.141Z,2.20
2019-01-17T15:16:23.883Z,2.53
2019-01-17T15:18:27.620Z,1.97
2019-01-17T15:20:31.337Z,2.27
2019-01-17T15:22:35.083Z,2.30
2019-01-17T15:24:38.741Z,3.20
2019-01-17T15:26:42.461Z,2.60
2019-01-17T15:28:46.190Z,2.77
2019-01-17T15:30:49.894Z,3.10
2019-01-17T15:32:55.662Z,3.10
2019-01-17T15:35:01.707Z,3.03
2019-01-17T15:37:06.010Z,2.77
2019-01-17T15:39:10.024Z,2.00
2019-01-17T15:41:13.783Z,2.10
2019-01-17T15:43:19.215Z,2.23
2019-01-17T15:45:24.651Z,1.97
2019-01-17T15:47:30.975Z,2.60
2019-01-17T15:49:37.627Z,2.30
2019-01-17T15:51:42.464Z,2.30
2019-01-17T15:53:47.868Z,1.87
2019-01-17T15:55:53.488Z,1.93
2019-01-17T15:57:58.246Z,2.23
2019-01-17T16:00:04.265Z,2.30
2019-01-17T16:02:09.432Z,2.23
2019-01-17T16:04:13.501Z,2.43
2019-01-17T16:06:18.769Z,2.27
2019-01-17T16:08:24.016Z,2.10
2019-01-17T16:10:27.690Z,3.00
2019-01-17T16:12:31.373Z,3.20
2019-01-17T16:14:36.353Z,2.60
2019-01-17T16:16:40.165Z,2.27
2019-01-17T16:18:43.872Z,3.10
2019-01-17T16:20:47.586Z,3.40
2019-01-17T16:22:51.528Z,2.80
2019-01-17T16:24:55.269Z,2.47
2019-01-17T16:26:59.528Z,2.33
2019-01-17T16:29:04.746Z,2.50
2019-01-17T16:31:09.127Z,2.10
2019-01-17T16:33:13.898Z,2.60
2019-01-17T16:35:18.729Z,2.30
2019-01-17T16:37:22.450Z,3.50
2019-01-17T16:39:26.334Z,5.50
2019-01-17T16:41:30.776Z,4.47
2019-01-17T16:43:34.991Z,3.90
2019-01-17T16:45:39.375Z,3.60
2019-01-17T16:47:43.438Z,3.03
2019-01-17T16:49:47.131Z,2.60
2019-01-17T16:51:51.006Z,2.87
2019-01-17T16:53:55.056Z,3.27
2019-01-17T16:55:58.861Z,3.53
2019-01-17T16:58:02.665Z,2.93
2019-01-17T17:00:12.344Z,2.63
2019-01-17T17:02:16.367Z,3.20
2019-01-17T17:04:20.058Z,3.90
2019-01-17T17:06:24.449Z,6.00
2019-01-17T17:08:28.184Z,5.00
2019-01-17T17:10:34.149Z,6.20
2019-01-17T17:12:38.101Z,6.90
2019-01-17T17:14:42.521Z,4.20
2019-01-17T17:16:46.439Z,5.40
2019-01-17T17:18:51.157Z,4.70
2019-01-17T17:20:54.999Z,4.63
2019-01-17T17:22:58.710Z,4.27
2019-01-17T17:25:02.551Z,5.00
2019-01-17T17:27:06.456Z,5.50
2019-01-17T17:29:10.424Z,5.30
2019-01-17T17:31:15.816Z,5.00
2019-01-17T17:33:19.472Z,6.00
2019-01-17T17:35:25.152Z,5.30
2019-01-17T17:37:29.494Z,6.30
2019-01-17T17:39:33.118Z,5.67
2019-01-17T17:41:36.823Z,6.43
2019-01-17T17:43:41.572Z,5.63
2019-01-17T17:45:45.657Z,5.70
2019-01-17T17:47:49.442Z,4.90
2019-01-17T17:49:53.481Z,5.60
2019-01-17T17:51:57.240Z,6.53
2019-01-17T17:54:01.139Z,7.90
2019-01-17T17:56:05.162Z,8.47
2019-01-17T17:58:08.907Z,7.03
2019-01-17T18:00:17.267Z,6.63
2019-01-17T18:02:22.212Z,5.60
2019-01-17T18:04:25.939Z,4.37
2019-01-17T18:06:29.908Z,5.40
2019-01-17T18:08:33.678Z,8.73
2019-01-17T18:10:37.414Z,7.63
2019-01-17T18:12:41.695Z,7.60
2019-01-17T18:14:45.756Z,5.47
2019-01-17T18:16:49.659Z,5.53
2019-01-17T18:18:53.938Z,5.10
2019-01-17T18:20:57.845Z,4.50
2019-01-17T18:23:01.758Z,3.40
2019-01-17T18:25:09.699Z,3.40
2019-01-17T18:27:13.464Z,4.10
2019-01-17T18:29:17.219Z,4.77
2019-01-17T18:31:20.920Z,4.57
2019-01-17T18:33:25.949Z,4.20
2019-01-17T18:35:29.796Z,4.87
2019-01-17T18:37:33.633Z,5.90
2019-01-17T18:39:37.570Z,6.47
2019-01-17T18:41:42.117Z,6.97
2019-01-17T18:43:45.847Z,6.60
2019-01-17T18:45:50.333Z,7.73
2019-01-17T18:47:54.466Z,8.57
2019-01-17T18:49:58.208Z,4.10
2019-01-17T18:52:02.478Z,4.53
2019-01-17T18:54:06.812Z,4.67
2019-01-17T18:56:10.410Z,5.73
2019-01-17T18:58:15.722Z,5.03
2019-01-17T19:00:26.249Z,4.23
2019-01-17T19:02:30.057Z,4.17
2019-01-17T19:04:33.815Z,6.57
2019-01-17T19:06:37.571Z,4.60
2019-01-17T19:08:41.291Z,6.67
2019-01-17T19:10:45.059Z,7.57
2019-01-17T19:12:49.240Z,6.97
2019-01-17T19:14:52.937Z,5.57
2019-01-17T19:16:56.681Z,5.57
2019-01-17T19:19:00.422Z,5.90
2019-01-17T19:21:04.155Z,5.13
2019-01-17T19:23:07.918Z,5.37
2019-01-17T19:25:11.809Z,4.97
2019-01-17T19:27:16.706Z,6.47
2019-01-17T19:29:22.450Z,5.67
2019-01-17T19:31:31.408Z,5.90
2019-01-17T19:33:35.668Z,4.20
2019-01-17T19:35:39.868Z,5.13
2019-01-17T19:37:43.806Z,4.90
2019-01-17T19:39:48.288Z,5.13
2019-01-17T19:41:53.776Z,5.20
2019-01-17T19:43:58.392Z,4.50
2019-01-17T19:46:02.377Z,4.40
2019-01-17T19:48:07.547Z,4.50
2019-01-17T19:50:23.446Z,3.60
2019-01-17T19:52:27.904Z,4.63
2019-01-17T19:54:31.502Z,3.97
2019-01-17T19:56:35.142Z,3.53
2019-01-17T19:58:40.542Z,3.90
2019-01-17T20:00:44.683Z,3.37
2019-01-17T20:02:48.603Z,3.50
2019-01-17T20:04:52.784Z,4.07
2019-01-17T20:06:57.001Z,3.70
2019-01-17T20:09:01.634Z,3.87
2019-01-17T20:11:05.328Z,3.40
2019-01-17T20:13:09.164Z,3.30
2019-01-17T20:15:13.297Z,3.07
2019-01-17T20:17:17.059Z,3.00
2019-01-17T20:19:20.802Z,3.60
2019-01-17T20:21:25.251Z,3.00
2019-01-17T20:23:29.001Z,4.50
2019-01-17T20:25:32.713Z,3.17
2019-01-17T20:27:36.452Z,3.63
2019-01-17T20:29:40.249Z,3.70
2019-01-17T20:31:43.919Z,4.50
2019-01-17T20:33:47.620Z,4.17
2019-01-17T20:35:51.345Z,4.03
2019-01-17T20:37:55.096Z,3.60
2019-01-17T20:39:58.840Z,3.80
2019-01-17T20:42:03.589Z,4.37
2019-01-17T20:44:08.629Z,3.13
2019-01-17T20:46:13.365Z,3.63
2019-01-17T20:48:17.368Z,2.87
2019-01-17T20:50:25.311Z,4.40
2019-01-17T20:52:30.132Z,3.37
2019-01-17T20:54:34.898Z,3.20
2019-01-17T20:56:38.861Z,4.60
2019-01-17T20:58:42.649Z,3.73
2019-01-17T21:00:52.030Z,3.30
2019-01-17T21:02:55.807Z,4.17
2019-01-17T21:04:59.648Z,4.70
2019-01-17T21:07:05.861Z,4.30
2019-01-17T21:09:10.660Z,4.30
2019-01-17T21:11:14.225Z,4.30
2019-01-17T21:13:17.933Z,4.70
2019-01-17T21:15:21.817Z,3.73
2019-01-17T21:17:25.539Z,3.90
2019-01-17T21:19:29.284Z,4.53
2019-01-17T21:21:33.019Z,3.70
2019-01-17T21:23:36.833Z,5.23
2019-01-17T21:25:40.504Z,4.30
2019-01-17T21:27:44.177Z,5.83
2019-01-17T21:29:47.855Z,6.57
2019-01-17T21:31:51.508Z,4.43
2019-01-17T21:33:55.391Z,5.70
2019-01-17T21:35:59.290Z,5.00
2019-01-17T21:38:02.962Z,3.70
2019-01-17T21:40:09.652Z,4.27
2019-01-17T21:42:13.314Z,4.73
2019-01-17T21:44:17.038Z,4.47
2019-01-17T21:46:20.871Z,4.13
2019-01-17T21:48:26.206Z,4.43
2019-01-17T21:50:31.637Z,4.97
2019-01-17T21:52:35.318Z,4.30
2019-01-17T21:54:39.092Z,4.83
2019-01-17T21:56:42.868Z,4.87
2019-01-17T21:58:46.525Z,3.63
2019-01-17T22:00:50.391Z,4.30
2019-01-17T22:02:54.111Z,4.37
2019-01-17T22:04:57.753Z,4.83
2019-01-17T22:07:02.435Z,4.60
2019-01-17T22:09:07.592Z,4.00
2019-01-17T22:11:11.440Z,4.17
2019-01-17T22:13:15.733Z,3.50
2019-01-17T22:15:22.727Z,5.07
2019-01-17T22:17:26.394Z,4.50
2019-01-17T22:19:30.699Z,5.00
2019-01-17T22:21:36.816Z,5.57
2019-01-17T22:23:40.414Z,5.60
2019-01-17T22:25:45.685Z,4.80
2019-01-17T22:27:51.214Z,4.10
2019-01-17T22:29:54.904Z,4.30
2019-01-17T22:31:58.612Z,4.70
2019-01-17T22:34:02.339Z,5.60
2019-01-17T22:36:06.097Z,5.97
2019-01-17T22:38:10.076Z,4.97
2019-01-17T22:40:17.484Z,4.43
2019-01-17T22:42:21.172Z,5.00
2019-01-17T22:44:24.986Z,5.00
2019-01-17T22:46:28.613Z,5.07
2019-01-17T22:48:32.256Z,6.00
2019-01-17T22:50:35.992Z,5.40
2019-01-17T22:52:40.035Z,4.70
2019-01-17T22:54:45.005Z,4.73
2019-01-17T22:56:48.689Z,5.23
2019-01-17T22:58:52.412Z,5.20
2019-01-17T23:01:00.740Z,5.10
2019-01-17T23:03:04.767Z,5.47
2019-01-17T23:05:08.494Z,5.23
2019-01-17T23:07:12.229Z,5.17
2019-01-17T23:09:16.045Z,5.00
2019-01-17T23:11:19.805Z,5.40
2019-01-17T23:13:23.843Z,5.47
2019-01-17T23:15:27.592Z,5.17
2019-01-17T23:17:31.834Z,5.43
2019-01-17T23:19:35.537Z,4.80
2019-01-17T23:21:39.250Z,5.97
2019-01-17T23:23:43.291Z,4.87
2019-01-17T23:25:47.006Z,5.97
2019-01-17T23:27:50.851Z,6.27
2019-01-17T23:29:54.649Z,5.50
2019-01-17T23:31:58.482Z,5.73
2019-01-17T23:34:02.191Z,5.60
2019-01-17T23:36:05.912Z,5.10
2019-01-17T23:38:09.791Z,6.50
2019-01-17T23:40:13.605Z,5.20
2019-01-17T23:42:17.320Z,4.70
2019-01-17T23:44:21.104Z,5.10
2019-01-17T23:46:24.785Z,4.70
2019-01-17T23:48:28.572Z,4.50
2019-01-17T23:50:32.306Z,6.63
2019-01-17T23:52:36.026Z,5.27
2019-01-17T23:54:39.668Z,4.83
2019-01-17T23:56:43.373Z,5.63
2019-01-17T23:58:47.061Z,5.33
